Currently 75°F in Simi Valley, California, USA
75°F
78°F / 51°F
4 mph W
0.00"
Sunday, May 24, 2020 6:02 PM PDT

Simi Valley, California Climate Summary
Typical January Day

Normal High:    67.3°F (19.6°C)
Normal Low:    48.6°F (9.2°C)
Average:    57.5°F (14.1°C)

Hour    Temperature    Wind Speed    Humidity
12:00 AM    54°F (12°C)    4 mph    57%
1:00 AM    53°F (12°C)    4 mph    58%
2:00 AM    53°F (12°C)    4 mph    58%
3:00 AM    52°F (11°C)    4 mph    58%
4:00 AM    52°F (11°C)    4 mph    59%
5:00 AM    52°F (11°C)    4 mph    59%
6:00 AM    52°F (11°C)    4 mph    60%
7:00 AM    51°F (11°C)    4 mph    60%
8:00 AM    52°F (11°C)    4 mph    60%
9:00 AM    56°F (14°C)    5 mph    57%
10:00 AM    60°F (16°C)    5 mph    51%
11:00 AM    63°F (17°C)    6 mph    47%
12:00 PM    65°F (18°C)    6 mph    44%
1:00 PM    66°F (19°C)    6 mph    42%
2:00 PM    66°F (19°C)    6 mph    41%
3:00 PM    66°F (19°C)    6 mph    43%
4:00 PM    64°F (18°C)    5 mph    45%
5:00 PM    62°F (17°C)    5 mph    49%
6:00 PM    59°F (15°C)    4 mph    53%
7:00 PM    57°F (14°C)    4 mph    55%
8:00 PM    56°F (13°C)    4 mph    56%
9:00 PM    55°F (13°C)    4 mph    57%
10:00 PM    55°F (13°C)    4 mph    57%
11:00 PM    54°F (12°C)    4 mph    57%
 

The Simi Valley, California weather pages are a service of WeatherCurrents.
Copyright ©2020  WeatherCurrents. All rights reserved. - Submit questions and comments - Privacy Policy